createdAt,value
2023-05-21T00:01:26.090Z,10.90
2023-05-21T00:03:56.958Z,10.89
2023-05-21T00:06:28.196Z,10.88
2023-05-21T00:08:59.157Z,10.86
2023-05-21T00:11:29.888Z,10.86
2023-05-21T00:14:03.333Z,10.86
2023-05-21T00:16:34.196Z,10.85
2023-05-21T00:19:05.234Z,10.84
2023-05-21T00:21:36.047Z,10.82
2023-05-21T00:24:06.841Z,10.81
2023-05-21T00:26:37.606Z,10.79
2023-05-21T00:29:11.299Z,10.78
2023-05-21T00:31:42.241Z,10.78
2023-05-21T00:34:13.168Z,10.77
2023-05-21T00:36:45.823Z,10.76
2023-05-21T00:39:17.248Z,10.74
2023-05-21T00:41:48.978Z,10.73
2023-05-21T00:44:25.916Z,10.73
2023-05-21T00:46:56.855Z,10.74
2023-05-21T00:49:27.679Z,10.73
2023-05-21T00:52:01.931Z,10.72
2023-05-21T00:54:33.930Z,10.69
2023-05-21T00:57:06.176Z,10.69
2023-05-21T00:59:39.784Z,10.67
2023-05-21T01:02:14.496Z,10.65
2023-05-21T01:04:45.328Z,10.64
2023-05-21T01:07:16.597Z,10.64
2023-05-21T01:09:47.338Z,10.65
2023-05-21T01:12:21.368Z,10.63
2023-05-21T01:14:55.394Z,10.64
2023-05-21T01:17:26.630Z,10.65
2023-05-21T01:19:58.616Z,10.63
2023-05-21T01:22:32.737Z,10.64
2023-05-21T01:25:07.160Z,10.65
2023-05-21T01:27:37.976Z,10.66
2023-05-21T01:30:10.486Z,10.66
2023-05-21T01:32:51.426Z,10.66
2023-05-21T01:35:26.259Z,10.68
2023-05-21T01:38:02.797Z,10.69
2023-05-21T01:40:45.164Z,10.69
2023-05-21T01:43:17.460Z,10.69
2023-05-21T01:45:49.777Z,10.69
2023-05-21T01:48:21.971Z,10.68
2023-05-21T01:50:55.659Z,10.67
2023-05-21T01:53:26.415Z,10.69
2023-05-21T01:55:59.895Z,10.69
2023-05-21T01:58:30.865Z,10.70
2023-05-21T02:01:03.160Z,10.71
2023-05-21T02:03:34.757Z,10.72
2023-05-21T02:06:05.804Z,10.71
2023-05-21T02:08:36.949Z,10.69
2023-05-21T02:11:10.904Z,10.66
2023-05-21T02:13:43.002Z,10.63
2023-05-21T02:16:15.194Z,10.63
2023-05-21T02:18:48.494Z,10.63
2023-05-21T02:21:20.952Z,10.61
2023-05-21T02:23:52.368Z,10.59
2023-05-21T02:26:25.878Z,10.63
2023-05-21T02:28:57.453Z,10.63
2023-05-21T02:31:28.415Z,10.62
2023-05-21T02:33:59.422Z,10.61
2023-05-21T02:36:33.657Z,10.61
2023-05-21T02:39:04.633Z,10.58
2023-05-21T02:41:38.522Z,10.58
2023-05-21T02:44:09.457Z,10.57
2023-05-21T02:46:40.228Z,10.59
2023-05-21T02:49:11.164Z,10.60
2023-05-21T02:51:43.685Z,10.60
2023-05-21T02:54:14.520Z,10.60
2023-05-21T02:56:48.034Z,10.62
2023-05-21T02:59:18.821Z,10.59
2023-05-21T03:01:49.758Z,10.62
2023-05-21T03:04:22.189Z,10.63
2023-05-21T03:06:55.343Z,10.64
2023-05-21T03:09:26.321Z,10.65
2023-05-21T03:12:01.783Z,10.64
2023-05-21T03:14:33.121Z,10.65
2023-05-21T03:17:06.430Z,10.65
2023-05-21T03:19:37.808Z,10.64
2023-05-21T03:22:09.363Z,10.65
2023-05-21T03:24:42.590Z,10.65
2023-05-21T03:27:16.102Z,10.66
2023-05-21T03:29:48.082Z,10.68
2023-05-21T03:32:19.454Z,10.69
2023-05-21T03:34:52.292Z,10.69
2023-05-21T03:37:23.214Z,10.71
2023-05-21T03:39:54.417Z,10.71
2023-05-21T03:42:27.864Z,10.71
2023-05-21T03:45:00.245Z,10.73
2023-05-21T03:47:54.003Z,10.74
2023-05-21T03:50:24.978Z,10.75
2023-05-21T03:52:55.766Z,10.77
2023-05-21T03:55:26.714Z,10.79
2023-05-21T03:58:00.197Z,10.81
2023-05-21T04:00:32.911Z,10.84
2023-05-21T04:03:04.133Z,10.87
2023-05-21T04:05:35.323Z,10.92
2023-05-21T04:08:07.184Z,10.95
2023-05-21T04:10:38.432Z,10.99
2023-05-21T04:13:11.815Z,11.02
2023-05-21T04:15:44.137Z,11.06
2023-05-21T04:18:15.823Z,11.07
2023-05-21T04:20:47.435Z,11.09
2023-05-21T04:23:18.219Z,11.10
2023-05-21T04:25:51.201Z,11.12
2023-05-21T04:28:25.059Z,11.15
2023-05-21T04:30:56.912Z,11.17
2023-05-21T04:33:29.043Z,11.18
2023-05-21T04:36:00.155Z,11.22
2023-05-21T04:38:31.202Z,11.26
2023-05-21T04:41:04.165Z,11.30
2023-05-21T04:43:38.653Z,11.35
2023-05-21T04:46:09.853Z,11.43
2023-05-21T04:48:41.323Z,11.52
2023-05-21T04:51:13.408Z,11.62
2023-05-21T04:53:44.147Z,11.72
2023-05-21T04:56:14.984Z,11.85
2023-05-21T04:58:49.471Z,12.03
2023-05-21T05:01:20.524Z,12.26
2023-05-21T05:03:51.617Z,12.51
2023-05-21T05:06:22.675Z,12.82
2023-05-21T05:08:53.475Z,13.10
2023-05-21T05:11:25.594Z,13.28
2023-05-21T05:13:58.973Z,13.42
2023-05-21T05:16:30.027Z,13.49
2023-05-21T05:19:01.311Z,13.55
2023-05-21T05:21:33.510Z,13.60
2023-05-21T05:24:04.608Z,13.65
2023-05-21T05:26:36.267Z,13.71
2023-05-21T05:29:09.700Z,13.77
2023-05-21T05:31:40.917Z,13.81
2023-05-21T05:34:11.870Z,13.85
2023-05-21T05:36:42.638Z,13.90
2023-05-21T05:39:13.552Z,13.95
2023-05-21T05:41:46.728Z,14.03
2023-05-21T05:44:20.157Z,14.14
2023-05-21T05:46:50.987Z,14.26
2023-05-21T05:49:21.840Z,14.33
2023-05-21T05:51:52.692Z,14.36
2023-05-21T05:54:23.697Z,14.37
2023-05-21T05:56:54.676Z,14.38
2023-05-21T05:59:28.379Z,14.43
2023-05-21T06:02:03.447Z,14.54
2023-05-21T06:04:34.412Z,14.60
2023-05-21T06:07:05.222Z,14.62
2023-05-21T06:09:36.167Z,14.65
2023-05-21T06:12:08.661Z,14.63
2023-05-21T06:14:45.049Z,14.61
2023-05-21T06:17:16.664Z,14.60
2023-05-21T06:19:47.864Z,14.57
2023-05-21T06:22:18.636Z,14.53
2023-05-21T06:24:49.594Z,14.50
2023-05-21T06:27:20.555Z,14.45
2023-05-21T06:29:55.177Z,14.42
2023-05-21T06:32:26.179Z,14.39
2023-05-21T06:34:57.010Z,14.36
2023-05-21T06:37:28.583Z,14.35
2023-05-21T06:39:59.657Z,14.33
2023-05-21T06:42:30.602Z,14.29
2023-05-21T06:45:36.591Z,14.29
2023-05-21T06:48:23.163Z,14.29
2023-05-21T06:50:54.974Z,14.34
2023-05-21T06:53:26.119Z,14.41
2023-05-21T06:55:56.883Z,14.55
2023-05-21T06:58:54.792Z,14.80
2023-05-21T07:01:28.865Z,15.01
2023-05-21T07:04:01.352Z,15.17
2023-05-21T07:06:32.475Z,15.38
2023-05-21T07:09:03.370Z,15.71
2023-05-21T07:11:35.032Z,16.14
2023-05-21T07:14:07.625Z,16.58
2023-05-21T07:16:42.900Z,17.06
2023-05-21T07:19:13.854Z,17.45
2023-05-21T07:21:46.511Z,17.72
2023-05-21T07:24:17.271Z,17.98
2023-05-21T07:26:48.022Z,18.29
2023-05-21T07:29:18.851Z,18.53
2023-05-21T07:31:52.393Z,18.73
2023-05-21T07:34:24.759Z,18.94
2023-05-21T07:36:56.709Z,19.14
2023-05-21T07:39:27.525Z,19.26
2023-05-21T07:41:59.177Z,19.29
2023-05-21T07:44:30.219Z,19.28
2023-05-21T07:47:03.703Z,19.26
2023-05-21T07:49:34.630Z,19.25
2023-05-21T07:52:05.609Z,19.24
2023-05-21T07:54:36.792Z,19.25
2023-05-21T07:57:08.701Z,19.35
2023-05-21T07:59:55.435Z,19.52
2023-05-21T08:02:29.575Z,19.69
2023-05-21T08:05:02.008Z,19.81
2023-05-21T08:07:35.716Z,20.11
2023-05-21T08:10:06.712Z,20.50
2023-05-21T08:12:37.697Z,20.83
2023-05-21T08:15:11.030Z,21.04
2023-05-21T08:17:49.946Z,21.21
2023-05-21T08:20:20.965Z,21.49
2023-05-21T08:22:53.839Z,21.74
2023-05-21T08:25:25.443Z,22.02
2023-05-21T08:27:58.197Z,22.31
2023-05-21T08:30:29.361Z,22.63
2023-05-21T08:33:04.375Z,22.98
2023-05-21T08:35:38.020Z,23.27
2023-05-21T08:38:19.238Z,23.59
2023-05-21T08:41:04.350Z,23.96
2023-05-21T08:43:35.401Z,24.29
2023-05-21T08:46:10.005Z,24.61
2023-05-21T08:48:46.790Z,24.94
2023-05-21T08:51:17.861Z,25.26
2023-05-21T08:53:54.206Z,25.51
2023-05-21T08:56:26.318Z,25.68
2023-05-21T08:58:59.669Z,25.80
2023-05-21T09:01:38.674Z,25.86
2023-05-21T09:04:36.765Z,25.89
2023-05-21T09:07:08.194Z,25.91
2023-05-21T09:10:00.456Z,25.95
2023-05-21T09:12:31.882Z,25.86
2023-05-21T09:15:05.505Z,25.82
2023-05-21T09:17:39.318Z,25.79
2023-05-21T09:20:38.782Z,25.71
2023-05-21T09:23:12.777Z,25.62
2023-05-21T09:25:43.990Z,25.38
2023-05-21T09:28:18.660Z,25.24
2023-05-21T09:30:50.296Z,25.12
2023-05-21T09:33:29.912Z,24.90
2023-05-21T09:36:03.883Z,24.67
2023-05-21T09:38:37.169Z,24.50
2023-05-21T09:41:09.070Z,24.34
2023-05-21T09:43:40.302Z,24.23
2023-05-21T09:46:11.288Z,24.10
2023-05-21T09:48:43.805Z,24.01
2023-05-21T09:51:23.570Z,23.90
2023-05-21T09:53:55.122Z,23.77
2023-05-21T09:56:27.535Z,23.64
2023-05-21T09:59:00.656Z,23.47
2023-05-21T10:01:34.242Z,23.29
2023-05-21T10:04:09.675Z,23.12
2023-05-21T10:06:48.120Z,23.05
2023-05-21T10:09:22.766Z,23.08
2023-05-21T10:11:57.216Z,23.16
2023-05-21T10:14:33.409Z,23.25
2023-05-21T10:17:04.531Z,23.41
2023-05-21T10:19:37.657Z,23.59
2023-05-21T10:22:11.959Z,23.84
2023-05-21T10:24:44.400Z,24.09
2023-05-21T10:27:17.280Z,24.31
2023-05-21T10:29:49.468Z,24.47
2023-05-21T10:32:20.274Z,24.66
2023-05-21T10:34:51.876Z,24.71
2023-05-21T10:37:27.866Z,24.80
2023-05-21T10:39:59.159Z,24.75
2023-05-21T10:42:59.289Z,24.76
2023-05-21T10:45:40.973Z,24.87
2023-05-21T10:48:31.138Z,25.00
2023-05-21T10:51:24.194Z,25.10
2023-05-21T10:54:22.124Z,25.21
2023-05-21T10:57:04.785Z,25.18
2023-05-21T10:59:43.357Z,25.13
2023-05-21T11:02:17.772Z,25.10
2023-05-21T11:04:49.588Z,25.08
2023-05-21T11:07:26.967Z,25.07
2023-05-21T11:10:33.210Z,24.94
2023-05-21T11:13:16.649Z,24.74
2023-05-21T11:16:16.820Z,24.49
2023-05-21T11:19:05.960Z,24.25
2023-05-21T11:21:39.876Z,24.00
2023-05-21T11:24:11.574Z,23.85
2023-05-21T11:27:07.144Z,23.67
2023-05-21T11:29:44.660Z,23.43
2023-05-21T11:32:20.906Z,23.22
2023-05-21T11:34:51.978Z,23.02
2023-05-21T11:37:31.279Z,22.88
2023-05-21T11:40:17.556Z,22.77
2023-05-21T11:42:53.975Z,22.69
2023-05-21T11:45:25.814Z,22.67
2023-05-21T11:47:57.944Z,22.65
2023-05-21T11:50:30.930Z,22.68
2023-05-21T11:53:03.033Z,22.67
2023-05-21T11:55:35.009Z,22.57
2023-05-21T11:58:12.121Z,22.47
2023-05-21T12:00:44.809Z,22.43
2023-05-21T12:03:18.502Z,22.40
2023-05-21T12:05:50.265Z,22.37
2023-05-21T12:08:26.005Z,22.36
2023-05-21T12:11:02.101Z,22.30
2023-05-21T12:13:35.691Z,22.26
2023-05-21T12:16:07.268Z,22.23
2023-05-21T12:18:40.325Z,22.19
2023-05-21T12:21:12.683Z,22.17
2023-05-21T12:23:43.599Z,22.16
2023-05-21T12:26:15.446Z,22.20
2023-05-21T12:28:49.223Z,22.23
2023-05-21T12:31:20.151Z,22.25
2023-05-21T12:33:51.791Z,22.24
2023-05-21T12:36:26.691Z,22.26
2023-05-21T12:38:57.197Z,22.25
2023-05-21T12:41:28.341Z,22.23
2023-05-21T12:44:01.866Z,22.18
2023-05-21T12:46:33.039Z,22.15
2023-05-21T12:49:04.697Z,22.10
2023-05-21T12:51:42.238Z,22.01
2023-05-21T12:54:16.247Z,22.02
2023-05-21T12:56:50.103Z,21.92
2023-05-21T12:59:23.609Z,21.81
2023-05-21T13:01:56.333Z,21.71
2023-05-21T13:04:27.665Z,21.63
2023-05-21T13:06:58.954Z,21.59
2023-05-21T13:09:29.841Z,21.54
2023-05-21T13:12:00.773Z,21.49
2023-05-21T13:14:34.436Z,21.43
2023-05-21T13:17:05.310Z,21.38
2023-05-21T13:19:36.261Z,21.33
2023-05-21T13:22:07.597Z,21.16
2023-05-21T13:24:40.162Z,20.95
2023-05-21T13:27:11.089Z,20.73
2023-05-21T13:29:44.547Z,20.47
2023-05-21T13:32:15.421Z,20.21
2023-05-21T13:34:46.744Z,19.96
2023-05-21T13:37:17.589Z,19.78
2023-05-21T13:39:48.498Z,19.64
2023-05-21T13:42:20.050Z,19.56
2023-05-21T13:44:53.572Z,19.48
2023-05-21T13:47:24.319Z,19.42
2023-05-21T13:49:55.675Z,19.29
2023-05-21T13:52:26.602Z,19.29
2023-05-21T13:54:57.750Z,19.21
2023-05-21T13:57:31.189Z,19.15
2023-05-21T14:00:05.074Z,19.07
2023-05-21T14:02:39.686Z,19.00
2023-05-21T14:05:11.286Z,18.94
2023-05-21T14:07:43.213Z,18.90
2023-05-21T14:10:14.915Z,18.85
2023-05-21T14:12:46.440Z,18.81
2023-05-21T14:15:20.180Z,18.75
2023-05-21T14:17:52.721Z,18.71
2023-05-21T14:20:23.602Z,18.65
2023-05-21T14:22:54.391Z,18.59
2023-05-21T14:25:25.280Z,18.55
2023-05-21T14:27:56.315Z,18.51
2023-05-21T14:30:29.877Z,18.48
2023-05-21T14:33:01.581Z,18.48
2023-05-21T14:35:32.571Z,18.46
2023-05-21T14:38:03.400Z,18.41
2023-05-21T14:40:34.197Z,18.39
2023-05-21T14:43:07.335Z,18.36
2023-05-21T14:45:40.902Z,18.36
2023-05-21T14:48:12.144Z,18.29
2023-05-21T14:50:43.122Z,18.24
2023-05-21T14:53:15.284Z,18.21
2023-05-21T14:55:46.602Z,18.21
2023-05-21T14:58:17.546Z,18.21
2023-05-21T15:00:51.076Z,18.20
2023-05-21T15:03:22.150Z,18.21
2023-05-21T15:05:53.111Z,18.23
2023-05-21T15:08:24.064Z,18.25
2023-05-21T15:10:54.798Z,18.27
2023-05-21T15:13:25.635Z,18.29
2023-05-21T15:15:59.274Z,18.32
2023-05-21T15:18:30.057Z,18.34
2023-05-21T15:21:00.945Z,18.36
2023-05-21T15:23:32.608Z,18.39
2023-05-21T15:26:03.448Z,18.40
2023-05-21T15:28:35.378Z,18.42
2023-05-21T15:31:08.786Z,18.42
2023-05-21T15:33:39.691Z,18.46
2023-05-21T15:36:11.388Z,18.36
2023-05-21T15:38:42.276Z,18.48
2023-05-21T15:41:15.795Z,18.49
2023-05-21T15:43:46.512Z,18.49
2023-05-21T15:46:20.103Z,18.51
2023-05-21T15:48:51.011Z,18.51
2023-05-21T15:51:22.099Z,18.53
2023-05-21T15:53:52.988Z,18.53
2023-05-21T15:56:23.813Z,18.52
2023-05-21T15:58:54.723Z,18.54
2023-05-21T16:01:30.003Z,18.52
2023-05-21T16:04:00.901Z,18.52
2023-05-21T16:06:33.122Z,18.52
2023-05-21T16:09:06.507Z,18.50
2023-05-21T16:11:37.592Z,18.49
2023-05-21T16:14:08.470Z,18.50
2023-05-21T16:16:42.388Z,18.46
2023-05-21T16:19:13.305Z,18.44
2023-05-21T16:21:44.984Z,18.41
2023-05-21T16:24:15.973Z,18.38
2023-05-21T16:26:47.431Z,18.35
2023-05-21T16:29:18.322Z,18.31
2023-05-21T16:31:51.810Z,18.27
2023-05-21T16:34:22.755Z,18.22
2023-05-21T16:36:54.246Z,18.21
2023-05-21T16:39:25.083Z,18.16
2023-05-21T16:41:59.963Z,18.13
2023-05-21T16:44:32.330Z,18.09
2023-05-21T16:47:05.895Z,18.04
2023-05-21T16:49:36.717Z,17.98
2023-05-21T16:52:07.734Z,17.96
2023-05-21T16:54:38.624Z,17.91
2023-05-21T16:57:09.899Z,17.90
2023-05-21T16:59:40.708Z,17.85
2023-05-21T17:02:16.066Z,17.81
2023-05-21T17:04:47.005Z,17.76
2023-05-21T17:07:19.183Z,17.72
2023-05-21T17:09:50.006Z,17.67
2023-05-21T17:12:20.861Z,17.61
2023-05-21T17:14:52.299Z,17.58
2023-05-21T17:17:25.814Z,17.51
2023-05-21T17:19:56.701Z,17.46
2023-05-21T17:22:27.797Z,17.42
2023-05-21T17:24:59.097Z,17.37
2023-05-21T17:27:30.078Z,17.31
2023-05-21T17:30:01.042Z,17.27
2023-05-21T17:32:34.776Z,17.21
2023-05-21T17:35:05.921Z,17.16
2023-05-21T17:37:36.705Z,17.15
2023-05-21T17:40:08.623Z,17.11
2023-05-21T17:42:39.582Z,17.00
2023-05-21T17:45:11.318Z,17.05
2023-05-21T17:47:44.756Z,17.02
2023-05-21T17:50:15.865Z,16.99
2023-05-21T17:52:46.848Z,16.94
2023-05-21T17:55:17.823Z,16.91
2023-05-21T17:57:48.714Z,16.88
2023-05-21T18:00:20.115Z,16.82
2023-05-21T18:02:53.647Z,16.78
2023-05-21T18:05:25.030Z,16.72
2023-05-21T18:07:56.357Z,16.67
2023-05-21T18:10:27.678Z,16.62
2023-05-21T18:12:58.820Z,16.56
2023-05-21T18:15:29.909Z,16.51
2023-05-21T18:18:07.182Z,16.46
2023-05-21T18:20:38.309Z,16.41
2023-05-21T18:23:09.680Z,16.36
2023-05-21T18:25:40.634Z,16.30
2023-05-21T18:28:11.608Z,16.26
2023-05-21T18:30:42.658Z,16.19
2023-05-21T18:33:17.007Z,16.12
2023-05-21T18:35:47.961Z,16.07
2023-05-21T18:38:18.747Z,16.03
2023-05-21T18:40:49.780Z,15.96
2023-05-21T18:43:21.006Z,15.90
2023-05-21T18:45:53.205Z,15.88
2023-05-21T18:48:26.665Z,15.85
2023-05-21T18:50:58.383Z,15.81
2023-05-21T18:53:29.253Z,15.79
2023-05-21T18:56:00.181Z,15.76
2023-05-21T18:58:33.425Z,15.73
2023-05-21T19:01:04.680Z,15.70
2023-05-21T19:03:38.494Z,15.67
2023-05-21T19:06:09.784Z,15.64
2023-05-21T19:08:41.629Z,15.63
2023-05-21T19:11:12.474Z,15.61
2023-05-21T19:13:43.266Z,15.54
2023-05-21T19:16:14.187Z,15.51
2023-05-21T19:18:48.353Z,15.46
2023-05-21T19:21:22.434Z,15.42
2023-05-21T19:23:54.098Z,15.39
2023-05-21T19:26:25.333Z,15.37
2023-05-21T19:28:56.905Z,15.36
2023-05-21T19:31:28.350Z,15.34
2023-05-21T19:34:01.871Z,15.30
2023-05-21T19:36:48.869Z,15.27
2023-05-21T19:39:23.646Z,15.25
2023-05-21T19:41:54.774Z,15.23
2023-05-21T19:44:25.492Z,15.18
2023-05-21T19:46:56.375Z,15.15
2023-05-21T19:49:29.922Z,15.15
2023-05-21T19:52:00.862Z,15.09
2023-05-21T19:54:32.221Z,15.08
2023-05-21T19:57:03.124Z,15.03
2023-05-21T19:59:33.966Z,14.98
2023-05-21T20:02:04.930Z,14.95
2023-05-21T20:04:39.245Z,14.91
2023-05-21T20:07:10.623Z,14.87
2023-05-21T20:09:42.282Z,14.82
2023-05-21T20:12:13.367Z,14.78
2023-05-21T20:14:47.115Z,14.73
2023-05-21T20:17:19.155Z,14.68
2023-05-21T20:19:52.487Z,14.61
2023-05-21T20:22:23.595Z,14.57
2023-05-21T20:24:54.566Z,14.53
2023-05-21T20:27:25.495Z,14.48
2023-05-21T20:29:56.323Z,14.46
2023-05-21T20:32:27.306Z,14.41
2023-05-21T20:35:03.270Z,14.38
2023-05-21T20:37:37.267Z,14.36
2023-05-21T20:40:09.533Z,14.33
2023-05-21T20:42:40.529Z,14.30
2023-05-21T20:45:13.212Z,14.27
2023-05-21T20:47:44.069Z,14.24
2023-05-21T20:50:20.200Z,14.22
2023-05-21T20:52:52.313Z,14.20
2023-05-21T20:55:23.297Z,14.18
2023-05-21T20:57:54.540Z,14.15
2023-05-21T21:00:26.081Z,14.10
2023-05-21T21:02:58.645Z,14.06
2023-05-21T21:05:32.267Z,14.04
2023-05-21T21:08:03.233Z,14.02
2023-05-21T21:10:34.032Z,13.97
2023-05-21T21:13:07.538Z,13.95
2023-05-21T21:15:38.913Z,13.89
2023-05-21T21:18:09.791Z,13.86
2023-05-21T21:20:43.644Z,13.83
2023-05-21T21:23:14.536Z,13.81
2023-05-21T21:25:45.466Z,13.78
2023-05-21T21:28:16.301Z,13.76
2023-05-21T21:30:47.330Z,13.70
2023-05-21T21:33:18.436Z,13.68
2023-05-21T21:35:52.081Z,13.63
2023-05-21T21:38:22.876Z,13.58
2023-05-21T21:40:54.755Z,13.53
2023-05-21T21:43:25.419Z,13.48
2023-05-21T21:45:56.326Z,13.45
2023-05-21T21:48:27.121Z,13.39
2023-05-21T21:51:00.668Z,13.33
2023-05-21T21:53:31.405Z,13.29
2023-05-21T21:56:02.269Z,13.25
2023-05-21T21:58:33.067Z,13.23
2023-05-21T22:01:03.968Z,13.19
2023-05-21T22:03:35.693Z,13.16
2023-05-21T22:06:09.421Z,13.12
2023-05-21T22:08:40.127Z,13.12
2023-05-21T22:11:11.005Z,13.10
2023-05-21T22:13:42.050Z,13.06
2023-05-21T22:16:13.275Z,13.04
2023-05-21T22:18:44.217Z,13.00
2023-05-21T22:21:18.818Z,12.97
2023-05-21T22:23:49.558Z,12.94
2023-05-21T22:26:20.573Z,12.93
2023-05-21T22:28:51.780Z,12.91
2023-05-21T22:31:23.061Z,12.88
2023-05-21T22:33:54.010Z,12.86
2023-05-21T22:36:28.143Z,12.81
2023-05-21T22:38:59.050Z,12.80
2023-05-21T22:41:30.092Z,12.79
2023-05-21T22:44:01.180Z,12.79
2023-05-21T22:46:32.368Z,12.77
2023-05-21T22:49:03.142Z,12.76
2023-05-21T22:51:37.058Z,12.75
2023-05-21T22:54:08.086Z,12.73
2023-05-21T22:56:39.002Z,12.71
2023-05-21T22:59:09.971Z,12.69
2023-05-21T23:01:41.123Z,12.66
2023-05-21T23:04:11.900Z,12.64
2023-05-21T23:06:46.044Z,12.64
2023-05-21T23:09:16.741Z,12.63
2023-05-21T23:11:48.220Z,12.55
2023-05-21T23:14:18.988Z,12.60
2023-05-21T23:16:49.830Z,12.59
2023-05-21T23:19:21.474Z,12.49
2023-05-21T23:21:55.023Z,12.58
2023-05-21T23:24:26.090Z,12.54
2023-05-21T23:26:57.116Z,12.50
2023-05-21T23:29:28.074Z,12.48
2023-05-21T23:32:01.325Z,12.48
2023-05-21T23:34:32.236Z,12.47
2023-05-21T23:37:07.422Z,12.41
2023-05-21T23:39:37.966Z,12.35
2023-05-21T23:42:09.363Z,12.28
2023-05-21T23:44:40.184Z,12.21
2023-05-21T23:47:10.976Z,12.14
2023-05-21T23:49:42.566Z,12.12
2023-05-21T23:52:17.568Z,12.09
2023-05-21T23:54:48.420Z,12.08
2023-05-21T23:57:19.156Z,12.07
2023-05-21T23:59:50.127Z,12.08
